Time;durP1;ratioP1;P1;durP2;ratioP2;P2;SDS_P1;SDS_P2;PMS_P1;PMS_P2;Temp;Humidity;BMP_temperature;BMP_pressure;BME280_temperature;BME280_humidity;BME280_pressure;Samples;Min_cycle;Max_cycle;Signal;HPM_P1;HPM_P2
2021/01/20 00:00:35;;;;;;;8.55;5.78;;;;;;;7.70;75.81;99335.13;7840882;36;20451;-71
2021/01/20 00:05:37;;;;;;;13.80;8.02;;;;;;;7.80;75.79;99313.09;7840942;36;20865;-71
2021/01/20 00:10:40;;;;;;;9.70;4.38;;;;;;;7.88;75.16;99306.38;7841430;36;21061;-71
2021/01/20 00:15:43;;;;;;;9.82;6.45;;;;;;;7.85;75.27;99306.59;7846762;36;20513;-71
2021/01/20 00:20:45;;;;;;;8.63;4.95;;;;;;;7.67;74.77;99306.09;7850456;36;20155;-71
2021/01/20 00:26:06;;;;;;;5.00;3.15;;;;;;;7.70;74.30;99317.38;7850230;36;21627;-71
2021/01/20 00:31:11;;;;;;;5.95;3.33;;;;;;;7.61;74.19;99302.09;7849397;36;21029;-70
2021/01/20 00:51:04;;;;;;;4.05;3.47;;;;;;;7.59;73.18;99274.75;7843168;36;20824;-71
2021/01/20 00:56:10;;;;;;;8.20;3.65;;;;;;;7.75;72.59;99307.25;7822625;36;20170;-71
2021/01/20 01:01:14;;;;;;;3.80;2.97;;;;;;;7.62;72.98;99287.81;7823620;36;20466;-71
2021/01/20 01:06:17;;;;;;;7.80;3.70;;;;;;;7.79;72.65;99263.53;7848547;36;20143;-71
2021/01/20 01:11:20;;;;;;;7.75;4.38;;;;;;;7.83;72.14;99258.84;7831418;36;22122;-71
2021/01/20 01:16:31;;;;;;;7.28;3.47;;;;;;;7.69;72.66;99264.31;7833015;36;20453;-71
2021/01/20 01:21:35;;;;;;;8.25;4.63;;;;;;;7.81;72.22;99247.47;7828838;36;20238;-70
2021/01/20 01:26:38;;;;;;;5.63;3.72;;;;;;;7.90;72.27;99249.47;7828710;36;20485;-71
2021/01/20 01:31:41;;;;;;;6.20;4.30;;;;;;;8.03;71.40;99268.00;7849654;36;20151;-71
2021/01/20 01:36:46;;;;;;;4.00;3.55;;;;;;;7.75;72.30;99239.94;7827016;36;20805;-71
2021/01/20 01:42:09;;;;;;;6.65;3.97;;;;;;;7.66;72.63;99225.53;7812951;36;20468;-71
2021/01/20 01:47:12;;;;;;;7.70;3.25;;;;;;;7.56;72.48;99222.66;7809945;36;20752;-71
2021/01/20 01:52:36;;;;;;;4.20;3.42;;;;;;;7.37;73.06;99205.53;7783100;36;20323;-71
2021/01/20 01:57:57;;;;;;;4.28;3.67;;;;;;;7.36;72.31;99225.94;7802832;36;20411;-71
2021/01/20 02:03:00;;;;;;;6.70;3.95;;;;;;;7.67;71.55;99202.44;7784220;36;20236;-71
2021/01/20 02:08:07;;;;;;;4.70;3.28;;;;;;;7.37;72.30;99205.53;7807259;36;20793;-71
2021/01/20 02:13:29;;;;;;;7.30;3.58;;;;;;;7.55;71.87;99189.09;7781681;36;21855;-71
2021/01/20 02:19:09;;;;;;;7.00;2.83;;;;;;;7.30;71.41;99227.22;7778727;36;20159;-71
2021/01/20 02:24:17;;;;;;;3.53;2.75;;;;;;;7.21;71.55;99182.72;7779503;36;20148;-71
2021/01/20 02:29:55;;;;;;;6.88;3.80;;;;;;;7.32;71.04;99213.81;7783709;36;20519;-71
2021/01/20 02:35:17;;;;;;;6.65;3.50;;;;;;;7.37;70.56;99179.78;7801630;36;20975;-71
2021/01/20 02:40:21;;;;;;;3.60;3.13;;;;;;;7.18;70.65;99193.56;7801374;36;21016;-71
2021/01/20 02:45:42;;;;;;;3.47;2.47;;;;;;;7.09;70.51;99186.25;7801412;36;20432;-71
2021/01/20 02:50:45;;;;;;;3.22;2.40;;;;;;;7.15;70.21;99180.50;7803796;36;20444;-71
2021/01/20 02:55:52;;;;;;;5.72;2.85;;;;;;;7.35;69.83;99176.44;7801731;36;20159;-71
2021/01/20 03:01:10;;;;;;;6.57;2.60;;;;;;;7.21;69.79;99180.06;7801521;36;20462;-70
2021/01/20 03:06:16;;;;;;;4.18;2.55;;;;;;;7.23;69.62;99170.16;7801548;36;21308;-71
2021/01/20 03:11:18;;;;;;;3.78;2.35;;;;;;;7.52;68.56;99173.38;7801698;36;21592;-71
2021/01/20 03:16:26;;;;;;;4.32;3.28;;;;;;;7.54;68.38;99160.81;7799291;36;20795;-71
2021/01/20 03:21:29;;;;;;;4.82;3.33;;;;;;;7.30;68.81;99160.81;7790043;36;20520;-71
2021/01/20 03:26:31;;;;;;;5.72;3.10;;;;;;;7.53;68.21;99151.13;7790749;36;20554;-71
2021/01/20 03:31:34;;;;;;;5.93;3.40;;;;;;;7.61;67.94;99160.38;7795490;36;20564;-71
2021/01/20 03:36:37;;;;;;;7.55;3.50;;;;;;;7.88;67.59;99145.00;7776113;36;20479;-71
2021/01/20 03:41:39;;;;;;;6.85;3.13;;;;;;;7.67;68.17;99142.13;7779363;36;20179;-71
2021/01/20 03:46:42;;;;;;;4.35;2.95;;;;;;;7.65;67.85;99129.91;7801398;36;20612;-71
2021/01/20 03:51:45;;;;;;;4.53;3.57;;;;;;;7.82;67.97;99134.00;7800612;36;20479;-71
2021/01/20 03:56:47;;;;;;;4.30;3.13;;;;;;;7.74;67.80;99153.19;7800913;36;20198;-71
2021/01/20 04:01:51;;;;;;;4.00;2.38;;;;;;;7.86;67.30;99149.59;7802429;36;20550;-71
2021/01/20 04:06:53;;;;;;;6.13;3.15;;;;;;;8.09;66.57;99137.22;7804607;36;20201;-71
2021/01/20 04:11:56;;;;;;;7.93;3.95;;;;;;;8.04;66.75;99133.22;7804976;36;20487;-71
2021/01/20 04:16:59;;;;;;;5.28;3.85;;;;;;;8.11;66.67;99129.09;7801428;36;20866;-71
2021/01/20 04:22:02;;;;;;;5.20;3.35;;;;;;;7.59;68.12;99128.56;7801744;36;20147;-71
2021/01/20 04:27:05;;;;;;;5.03;3.50;;;;;;;7.71;67.39;99127.66;7801525;36;20564;-71
2021/01/20 04:32:09;;;;;;;3.45;2.88;;;;;;;7.60;67.25;99137.38;7801451;36;20486;-71
2021/01/20 04:37:12;;;;;;;6.15;3.85;;;;;;;7.96;66.78;99141.78;7801577;36;20170;-71
2021/01/20 04:42:14;;;;;;;6.20;3.78;;;;;;;8.13;66.17;99132.50;7803150;36;21256;-71
2021/01/20 04:47:17;;;;;;;7.30;3.72;;;;;;;7.89;66.44;99128.06;7803298;36;21944;-71
2021/01/20 04:52:21;;;;;;;4.80;2.08;;;;;;;7.92;66.05;99134.97;7802930;36;20634;-71
2021/01/20 04:57:24;;;;;;;10.02;3.70;;;;;;;8.06;65.82;99121.47;7801345;36;20163;-71
2021/01/20 05:02:29;;;;;;;6.50;3.03;;;;;;;7.92;66.01;99117.19;7781772;36;20201;-71
2021/01/20 05:07:31;;;;;;;6.18;3.17;;;;;;;8.21;65.42;99127.44;7805243;36;20555;-71
2021/01/20 05:12:36;;;;;;;4.47;3.35;;;;;;;8.42;65.44;99115.19;7806809;36;20197;-71
2021/01/20 05:17:57;;;;;;;6.80;3.47;;;;;;;8.45;65.73;99112.28;7815943;36;20613;-71
2021/01/20 05:23:02;;;;;;;4.03;3.50;;;;;;;8.44;65.65;99099.91;7801109;36;20289;-71
2021/01/20 05:28:18;;;;;;;5.65;3.55;;;;;;;8.63;65.65;99090.47;7798975;36;21102;-71
2021/01/20 05:33:26;;;;;;;4.80;3.70;;;;;;;8.70;65.36;99080.22;7799843;36;21087;-71
2021/01/20 05:38:37;;;;;;;7.90;3.38;;;;;;;8.62;65.86;99076.31;7799142;36;21023;-71
2021/01/20 05:43:39;;;;;;;7.20;3.63;;;;;;;8.70;66.33;99066.91;7803819;36;20464;-71
2021/01/20 05:48:46;;;;;;;3.60;2.88;;;;;;;8.64;66.42;99066.41;7804016;36;20190;-71
2021/01/20 05:53:51;;;;;;;4.28;3.08;;;;;;;8.60;66.63;99056.97;7803860;36;20586;-71
2021/01/20 05:58:54;;;;;;;3.38;2.70;;;;;;;8.86;66.29;99052.22;7824829;36;20194;-71
2021/01/20 06:03:59;;;;;;;6.28;2.97;;;;;;;8.77;66.73;99050.28;7856869;36;21366;-71
2021/01/20 06:09:02;;;;;;;3.22;2.58;;;;;;;8.88;66.55;99036.09;7854326;36;20458;-71
2021/01/20 06:14:05;;;;;;;4.93;3.17;;;;;;;9.05;66.16;99034.72;7860987;36;21294;-71
2021/01/20 06:19:10;;;;;;;3.78;3.13;;;;;;;9.09;66.50;99026.34;7867557;36;20158;-71
2021/01/20 06:24:17;;;;;;;5.20;3.25;;;;;;;9.10;66.66;99005.88;7875012;36;20189;-70
2021/01/20 06:29:26;;;;;;;5.00;2.95;;;;;;;8.93;67.21;99009.09;7911828;36;20539;-71
2021/01/20 06:34:29;;;;;;;5.15;3.10;;;;;;;9.15;66.48;99008.16;7907285;36;20699;-71
2021/01/20 06:39:33;;;;;;;4.05;2.88;;;;;;;9.02;66.41;99009.19;7858850;36;20477;-71
2021/01/20 06:44:36;;;;;;;4.47;3.08;;;;;;;8.95;65.38;99008.00;7856690;36;20585;-71
2021/01/20 06:50:01;;;;;;;3.28;2.60;;;;;;;9.11;65.34;99005.75;7861758;36;20144;-71
2021/01/20 06:55:05;;;;;;;5.57;2.90;;;;;;;9.07;65.27;98998.97;7869839;36;20579;-71
2021/01/20 07:00:19;;;;;;;3.58;2.90;;;;;;;8.96;64.99;99000.84;7870483;36;20469;-70
2021/01/20 07:05:33;;;;;;;4.75;3.45;;;;;;;9.01;63.98;99011.97;7871129;36;20484;-70
2021/01/20 07:11:05;;;;;;;6.20;3.08;;;;;;;9.10;62.60;99001.41;7871333;36;20595;-70
2021/01/20 07:16:11;;;;;;;5.78;2.95;;;;;;;8.80;62.31;98999.47;7849423;36;20493;-70
2021/01/20 07:21:14;;;;;;;5.50;2.88;;;;;;;9.18;60.27;99003.44;7870731;36;20984;-70
2021/01/20 07:26:17;;;;;;;4.35;3.08;;;;;;;9.20;58.96;99004.16;7869379;36;21766;-70
2021/01/20 07:31:21;;;;;;;5.30;2.88;;;;;;;9.37;57.48;99012.56;7871863;36;20158;-70
2021/01/20 07:36:28;;;;;;;3.35;2.35;;;;;;;9.58;57.00;99000.94;7871502;36;20459;-70
2021/01/20 07:41:30;;;;;;;5.22;3.22;;;;;;;9.63;56.67;98997.88;7876109;36;20633;-70
2021/01/20 07:46:33;;;;;;;5.47;3.10;;;;;;;9.79;56.94;98990.28;7874475;36;21165;-70
2021/01/20 07:51:36;;;;;;;3.90;2.65;;;;;;;9.68;56.73;98984.16;7870511;36;20194;-70
2021/01/20 07:56:39;;;;;;;2.70;2.17;;;;;;;9.66;56.71;98992.28;7847722;36;20460;-71
2021/01/20 08:01:42;;;;;;;3.70;2.58;;;;;;;9.96;56.36;98991.47;7870006;36;20459;-70
2021/01/20 08:06:45;;;;;;;3.35;2.70;;;;;;;9.84;57.08;98997.84;7870522;36;20158;-70
2021/01/20 08:11:48;;;;;;;3.10;1.73;;;;;;;9.57;57.60;99030.38;7875569;36;20320;-70
2021/01/20 08:16:51;;;;;;;2.90;2.30;;;;;;;10.13;57.20;98995.34;7874297;36;20182;-69
2021/01/20 08:21:56;;;;;;;2.35;2.15;;;;;;;9.86;57.92;99009.25;7876963;36;20572;-70
2021/01/20 08:27:00;;;;;;;2.50;2.28;;;;;;;10.01;58.34;98991.94;7870320;36;20202;-69
2021/01/20 08:32:08;;;;;;;4.20;3.00;;;;;;;10.21;57.55;99029.38;7871410;36;20453;-69
2021/01/20 08:37:17;;;;;;;2.95;2.22;;;;;;;10.23;58.09;99000.75;7871432;36;20468;-70
2021/01/20 08:42:27;;;;;;;2.88;2.13;;;;;;;10.12;58.43;98993.66;7870544;36;20477;-69
2021/01/20 08:47:30;;;;;;;1.98;1.85;;;;;;;10.12;58.68;98998.13;7873095;36;20186;-70
2021/01/20 08:52:49;;;;;;;4.38;2.53;;;;;;;10.35;58.45;99017.53;7867142;36;20162;-70
2021/01/20 08:58:26;;;;;;;2.50;1.73;;;;;;;10.22;58.82;98993.69;7857293;36;20674;-69
2021/01/20 09:03:30;;;;;;;3.58;2.17;;;;;;;10.54;58.33;99001.56;7867006;36;20262;-69
2021/01/20 09:08:37;;;;;;;3.78;2.03;;;;;;;10.14;58.76;99038.88;7848997;36;20146;-69
2021/01/20 09:13:39;;;;;;;2.70;2.13;;;;;;;10.32;58.72;98994.63;7867424;36;20165;-69
2021/01/20 09:18:42;;;;;;;1.73;1.60;;;;;;;10.33;58.31;98982.13;7870114;36;21985;-69
2021/01/20 09:23:45;;;;;;;3.53;1.90;;;;;;;10.34;58.25;98991.81;7860619;36;20162;-70
2021/01/20 09:28:48;;;;;;;3.42;2.10;;;;;;;10.69;57.77;98996.69;7855671;36;20552;-69
2021/01/20 09:33:50;;;;;;;1.80;1.35;;;;;;;10.43;57.58;98999.84;7834197;36;20543;-70
2021/01/20 09:38:58;;;;;;;3.65;1.83;;;;;;;10.73;57.34;98998.13;7853611;36;21047;-70
2021/01/20 09:44:01;;;;;;;2.30;1.90;;;;;;;10.83;56.63;98972.28;7854951;36;20567;-69
2021/01/20 09:49:03;;;;;;;2.88;1.95;;;;;;;10.78;56.17;98976.34;7853736;36;20451;-69
2021/01/20 09:54:06;;;;;;;3.13;1.80;;;;;;;10.78;56.38;98965.66;7861109;36;20159;-69
2021/01/20 09:59:09;;;;;;;2.00;1.85;;;;;;;10.98;55.88;98961.16;7846335;36;20913;-69
2021/01/20 10:04:11;;;;;;;3.05;1.80;;;;;;;11.04;55.75;98974.81;7869455;36;20458;-70
2021/01/20 10:09:32;;;;;;;2.03;1.55;;;;;;;11.09;55.92;98985.09;7850232;36;21348;-70
2021/01/20 10:14:36;;;;;;;3.53;1.80;;;;;;;10.88;56.66;99004.75;7871070;36;20465;-69
2021/01/20 10:19:38;;;;;;;3.00;1.98;;;;;;;10.92;56.81;98975.09;7855259;36;21320;-70
2021/01/20 10:24:41;;;;;;;3.15;1.85;;;;;;;11.18;56.21;98970.03;7874559;36;20194;-71
2021/01/20 10:29:44;;;;;;;2.55;1.92;;;;;;;11.39;55.71;98945.81;7870717;36;20681;-70
2021/01/20 10:34:46;;;;;;;2.42;1.90;;;;;;;11.30;55.53;98935.00;7858437;36;20139;-70
2021/01/20 10:39:49;;;;;;;2.42;1.70;;;;;;;11.79;54.92;98927.72;7854187;36;20477;-70
2021/01/20 10:44:52;;;;;;;2.15;1.85;;;;;;;11.87;54.53;98929.66;7853729;36;20515;-71
2021/01/20 10:49:54;;;;;;;3.05;1.92;;;;;;;12.35;52.87;98933.97;7852634;36;20482;-70
2021/01/20 10:54:57;;;;;;;1.10;1.00;;;;;;;12.73;51.59;98918.66;7851093;36;20313;-70
2021/01/20 11:00:00;;;;;;;2.60;2.05;;;;;;;13.33;50.07;98897.44;7852753;36;20500;-69
2021/01/20 11:05:08;;;;;;;2.40;1.90;;;;;;;13.16;50.49;98894.75;7854807;36;20961;-70
2021/01/20 11:10:13;;;;;;;2.80;2.10;;;;;;;14.02;48.63;98897.50;7851222;36;21262;-70
2021/01/20 11:15:15;;;;;;;1.90;1.60;;;;;;;13.60;49.29;98898.28;7848763;36;20510;-70
2021/01/20 11:20:18;;;;;;;3.45;2.15;;;;;;;14.39;47.87;98893.63;7849992;36;20557;-70
2021/01/20 11:25:22;;;;;;;2.90;2.25;;;;;;;14.24;47.86;98888.88;7850257;36;20925;-70
2021/01/20 11:30:26;;;;;;;1.70;1.50;;;;;;;14.34;47.08;98878.00;7850681;36;20142;-70
2021/01/20 11:35:28;;;;;;;2.08;1.73;;;;;;;14.30;47.28;98868.56;7850838;36;20597;-70
2021/01/20 11:40:34;;;;;;;2.38;1.77;;;;;;;13.74;48.53;98872.72;7849590;36;20261;-70
2021/01/20 11:45:38;;;;;;;3.10;1.85;;;;;;;13.72;48.47;98845.19;7841917;36;21793;-70
2021/01/20 11:50:40;;;;;;;3.22;1.67;;;;;;;14.23;47.35;98841.53;7840713;36;20518;-70
2021/01/20 11:55:43;;;;;;;2.80;2.08;;;;;;;14.86;46.17;98836.59;7842485;36;20473;-70
2021/01/20 12:00:46;;;;;;;4.00;2.33;;;;;;;15.42;44.83;98832.19;7843976;36;20563;-70
2021/01/20 12:05:51;;;;;;;2.45;1.92;;;;;;;15.90;43.35;98821.47;7843562;36;20477;-70
2021/01/20 12:10:54;;;;;;;2.40;1.98;;;;;;;16.00;42.50;98822.13;7844094;36;20457;-71
2021/01/20 12:15:56;;;;;;;2.63;1.95;;;;;;;16.50;41.86;98822.69;7840418;36;20316;-70
2021/01/20 12:20:59;;;;;;;3.25;2.00;;;;;;;16.58;40.86;98822.63;7840106;36;20193;-70
2021/01/20 12:26:02;;;;;;;2.60;1.77;;;;;;;15.67;41.60;98816.81;7838933;36;20190;-70
2021/01/20 12:31:05;;;;;;;3.40;2.08;;;;;;;15.57;41.69;98803.53;7838861;36;20414;-70
2021/01/20 12:36:08;;;;;;;2.15;1.73;;;;;;;15.53;41.31;98799.53;7843070;36;20238;-70
2021/01/20 12:41:11;;;;;;;2.65;2.25;;;;;;;16.02;40.56;98803.09;7843592;36;20696;-71
2021/01/20 12:46:14;;;;;;;2.38;2.17;;;;;;;16.55;40.51;98780.69;7838509;36;20511;-70
2021/01/20 12:51:17;;;;;;;2.95;1.83;;;;;;;15.86;40.70;98777.91;7840344;36;20150;-70
2021/01/20 12:56:21;;;;;;;2.75;2.20;;;;;;;16.53;39.67;98765.72;7843935;36;20147;-70
2021/01/20 13:01:24;;;;;;;5.28;2.50;;;;;;;16.23;39.59;98781.75;7844312;36;20564;-71
2021/01/20 13:06:26;;;;;;;3.05;1.33;;;;;;;15.51;40.01;98793.47;7847403;36;20547;-69
2021/01/20 13:11:29;;;;;;;4.15;2.35;;;;;;;15.87;39.81;98776.88;7845571;36;20233;-69
2021/01/20 13:16:32;;;;;;;2.20;1.77;;;;;;;16.06;38.96;98772.09;7846900;36;20166;-69
2021/01/20 13:21:35;;;;;;;2.00;1.50;;;;;;;14.50;41.80;98756.25;7850542;36;21036;-68
2021/01/20 13:26:38;;;;;;;3.90;1.98;;;;;;;14.00;43.57;98746.47;7848274;36;20237;-69
2021/01/20 13:31:40;;;;;;;3.28;2.05;;;;;;;13.49;43.45;98762.59;7844810;36;20815;-69
2021/01/20 13:36:43;;;;;;;2.33;2.10;;;;;;;13.08;43.44;98738.19;7842145;36;21093;-69
2021/01/20 13:41:47;;;;;;;3.42;2.25;;;;;;;13.44;43.05;98754.16;7842856;36;20513;-69
2021/01/20 13:46:49;;;;;;;4.13;2.20;;;;;;;13.77;42.71;98719.41;7843822;36;20301;-69
2021/01/20 13:51:55;;;;;;;3.38;1.98;;;;;;;13.88;43.22;98716.41;7844440;36;20544;-69
2021/01/20 13:57:00;;;;;;;4.60;2.25;;;;;;;13.78;43.07;98727.28;7844091;36;20166;-70
2021/01/20 14:02:03;;;;;;;6.13;2.45;;;;;;;13.40;43.94;98717.09;7846993;36;20194;-69
2021/01/20 14:07:06;;;;;;;3.03;2.33;;;;;;;13.33;43.64;98723.09;7844303;36;20304;-69
2021/01/20 14:12:10;;;;;;;2.67;2.17;;;;;;;13.77;43.21;98714.88;7845989;36;20241;-69
2021/01/20 14:17:12;;;;;;;6.00;3.15;;;;;;;13.65;43.68;98708.13;7845669;36;21864;-69
2021/01/20 14:22:15;;;;;;;3.33;2.28;;;;;;;13.34;44.13;98730.13;7825548;36;21051;-69
2021/01/20 14:27:18;;;;;;;2.45;2.25;;;;;;;13.07;44.34;98709.69;7845621;36;20149;-69
2021/01/20 14:32:22;;;;;;;3.67;2.25;;;;;;;12.85;43.64;98710.22;7856459;36;20462;-70
2021/01/20 14:37:24;;;;;;;3.40;2.25;;;;;;;13.13;44.22;98709.03;7857886;36;20186;-70
2021/01/20 14:42:28;;;;;;;3.58;2.58;;;;;;;13.03;44.11;98708.34;7859874;36;20499;-70
2021/01/20 14:47:30;;;;;;;4.00;2.50;;;;;;;13.00;44.41;98707.78;7851007;36;20481;-70
2021/01/20 14:52:32;;;;;;;2.50;2.20;;;;;;;12.91;44.61;98709.59;7854831;36;20237;-69
2021/01/20 14:57:36;;;;;;;3.03;2.35;;;;;;;12.90;44.78;98713.28;7873027;36;20500;-70
2021/01/20 15:02:40;;;;;;;3.17;2.35;;;;;;;12.87;44.02;98725.16;7886001;36;20466;-68
2021/01/20 15:07:43;;;;;;;5.55;2.75;;;;;;;12.66;44.65;98712.09;7898026;36;20158;-69
2021/01/20 15:12:46;;;;;;;6.22;2.50;;;;;;;12.95;43.84;98700.25;7897565;36;20443;-69
2021/01/20 15:17:48;;;;;;;3.70;2.47;;;;;;;12.80;45.06;98702.66;7887102;36;20758;-68
2021/01/20 15:22:51;;;;;;;2.17;1.83;;;;;;;12.65;44.58;98690.84;7916471;36;20538;-69
2021/01/20 15:27:54;;;;;;;3.65;2.38;;;;;;;12.85;44.79;98697.66;7925903;36;20484;-69
2021/01/20 15:32:56;;;;;;;2.83;2.20;;;;;;;12.62;45.46;98696.53;7894070;36;20462;-69
2021/01/20 15:37:59;;;;;;;3.80;2.50;;;;;;;12.77;45.11;98686.91;7871417;36;21205;-69
2021/01/20 15:43:02;;;;;;;3.72;2.55;;;;;;;12.59;45.63;98681.59;7823939;36;20154;-69
2021/01/20 15:48:06;;;;;;;4.70;2.83;;;;;;;12.46;46.60;98684.69;7858468;36;20465;-68
2021/01/20 15:53:10;;;;;;;4.15;2.55;;;;;;;12.42;47.97;98691.34;7825348;36;20201;-69
2021/01/20 15:58:14;;;;;;;4.70;2.58;;;;;;;12.15;49.23;98694.97;7861509;36;20217;-69
2021/01/20 16:03:16;;;;;;;3.42;2.60;;;;;;;12.03;50.22;98701.53;7871284;36;20466;-69
2021/01/20 16:08:18;;;;;;;3.75;2.33;;;;;;;11.93;52.49;98706.13;7887770;36;20572;-70
2021/01/20 16:13:22;;;;;;;4.85;2.65;;;;;;;11.60;54.66;98713.78;7917392;36;20482;-69
2021/01/20 16:18:24;;;;;;;5.28;2.65;;;;;;;11.31;55.98;98711.25;7919051;36;20464;-69
2021/01/20 16:23:26;;;;;;;3.08;2.78;;;;;;;11.03;58.19;98713.91;7922191;36;20221;-70
2021/01/20 16:28:29;;;;;;;4.15;2.67;;;;;;;10.78;58.98;98696.69;7877030;36;20166;-70
2021/01/20 16:33:36;;;;;;;3.72;3.33;;;;;;;10.80;59.21;98693.88;7879124;36;20529;-70
2021/01/20 16:38:39;;;;;;;5.30;3.00;;;;;;;10.79;60.15;98681.50;7873250;36;20476;-70
2021/01/20 16:43:42;;;;;;;5.47;2.65;;;;;;;10.84;59.99;98669.41;7879186;36;20823;-70
2021/01/20 16:48:45;;;;;;;5.10;2.85;;;;;;;10.90;58.49;98690.19;7880439;36;20888;-70
2021/01/20 16:53:47;;;;;;;4.22;2.83;;;;;;;11.30;58.11;98666.81;7880606;36;20424;-70
2021/01/20 16:58:50;;;;;;;4.68;3.25;;;;;;;11.34;57.57;98666.34;7878731;36;20231;-70
2021/01/20 17:03:54;;;;;;;5.75;3.97;;;;;;;11.40;58.16;98659.56;7878766;36;20457;-70
2021/01/20 17:08:56;;;;;;;3.30;3.00;;;;;;;11.27;58.02;98657.25;7875126;36;20347;-70
2021/01/20 17:14:00;;;;;;;4.60;3.10;;;;;;;11.26;58.32;98641.34;7876582;36;20537;-70
2021/01/20 17:19:03;;;;;;;7.35;3.80;;;;;;;11.11;58.57;98641.88;7878059;36;20458;-70
2021/01/20 17:24:07;;;;;;;8.15;4.00;;;;;;;10.95;58.73;98638.16;7878581;36;20450;-70
2021/01/20 17:29:10;;;;;;;5.75;4.03;;;;;;;10.89;57.97;98645.75;7881779;36;20464;-70
2021/01/20 17:34:12;;;;;;;5.75;3.30;;;;;;;10.83;57.98;98637.47;7877893;36;21199;-70
2021/01/20 17:39:15;;;;;;;5.55;3.33;;;;;;;10.84;57.95;98642.69;7875622;36;20969;-70
2021/01/20 17:44:18;;;;;;;4.35;2.65;;;;;;;10.85;57.38;98639.00;7852760;36;20162;-70
2021/01/20 17:49:21;;;;;;;5.50;3.38;;;;;;;10.98;57.33;98636.00;7873915;36;20474;-70
2021/01/20 17:54:23;;;;;;;3.85;2.92;;;;;;;11.00;56.03;98636.72;7867807;36;20490;-70
2021/01/20 17:59:27;;;;;;;2.70;2.42;;;;;;;11.12;54.53;98632.84;7868570;36;20162;-70
2021/01/20 18:04:30;;;;;;;3.60;3.03;;;;;;;11.24;54.04;98621.94;7853007;36;20595;-69
2021/01/20 18:09:32;;;;;;;4.18;2.63;;;;;;;11.30;53.91;98619.53;7872618;36;20471;-70
2021/01/20 18:14:37;;;;;;;6.47;3.22;;;;;;;11.35;54.24;98619.06;7871047;36;20477;-69
2021/01/20 18:19:39;;;;;;;5.18;3.00;;;;;;;11.33;53.76;98621.91;7875155;36;20194;-70
2021/01/20 18:24:41;;;;;;;3.70;3.17;;;;;;;11.37;53.53;98611.75;7879363;36;20221;-69
2021/01/20 18:29:45;;;;;;;4.57;3.03;;;;;;;11.41;53.94;98586.41;7877478;36;20590;-70
2021/01/20 18:34:47;;;;;;;3.95;2.58;;;;;;;11.38;53.41;98580.50;7875686;36;20459;-69
2021/01/20 18:39:51;;;;;;;6.18;2.95;;;;;;;11.45;54.06;98589.59;7871513;36;20771;-69
2021/01/20 18:45:12;;;;;;;3.85;2.78;;;;;;;11.25;53.50;98588.91;7869233;36;21516;-70
2021/01/20 18:50:14;;;;;;;5.85;3.10;;;;;;;11.29;53.98;98585.75;7869166;36;20559;-70
2021/01/20 18:55:17;;;;;;;3.78;2.80;;;;;;;11.23;53.89;98577.50;7869447;36;20419;-69
2021/01/20 19:00:21;;;;;;;4.35;3.03;;;;;;;11.26;53.64;98564.69;7870479;36;20934;-70
2021/01/20 19:05:24;;;;;;;6.20;2.92;;;;;;;11.25;53.59;98588.91;7873513;36;20246;-70
2021/01/20 19:10:26;;;;;;;2.80;2.45;;;;;;;11.42;53.27;98579.22;7875233;36;20925;-70
2021/01/20 19:15:30;;;;;;;4.32;2.97;;;;;;;11.25;53.34;98586.22;7856363;36;20432;-69
2021/01/20 19:20:32;;;;;;;4.25;2.90;;;;;;;11.28;53.60;98581.41;7873887;36;20169;-70
2021/01/20 19:25:35;;;;;;;4.43;3.50;;;;;;;11.46;53.28;98581.41;7855023;36;21954;-70
2021/01/20 19:30:38;;;;;;;5.80;2.70;;;;;;;11.45;53.67;98571.72;7871577;36;21013;-70
2021/01/20 19:35:40;;;;;;;4.93;3.25;;;;;;;11.39;54.26;98566.97;7870138;36;20459;-70
2021/01/20 19:40:43;;;;;;;3.60;2.83;;;;;;;11.18;54.85;98572.59;7868236;36;20208;-70
2021/01/20 19:45:46;;;;;;;3.25;2.88;;;;;;;11.12;55.17;98570.53;7857681;36;20503;-71
2021/01/20 19:50:55;;;;;;;10.60;3.50;;;;;;;11.04;55.19;98576.63;7857602;36;20190;-71
2021/01/20 19:55:58;;;;;;;4.20;3.15;;;;;;;10.95;55.66;98584.72;7857619;36;21160;-69
2021/01/20 20:01:01;;;;;;;5.20;3.10;;;;;;;10.81;55.95;98570.03;7856297;36;20174;-71
2021/01/20 20:06:04;;;;;;;5.72;3.38;;;;;;;10.78;56.97;98565.81;7857486;36;21148;-70
2021/01/20 20:11:07;;;;;;;8.07;3.55;;;;;;;10.83;56.36;98554.66;7864885;36;20237;-71
2021/01/20 20:16:11;;;;;;;5.90;2.67;;;;;;;10.78;56.71;98554.28;7872170;36;20449;-70
2021/01/20 20:21:15;;;;;;;4.88;3.20;;;;;;;10.77;56.86;98550.75;7874529;36;20480;-70
2021/01/20 20:26:17;;;;;;;4.78;2.88;;;;;;;10.64;57.32;98543.13;7848896;36;20389;-70
2021/01/20 20:31:20;;;;;;;4.47;2.83;;;;;;;10.64;57.31;98528.91;7871767;36;20162;-70
2021/01/20 20:36:24;;;;;;;5.28;2.80;;;;;;;10.56;57.84;98523.44;7849150;36;20645;-71
2021/01/20 20:41:26;;;;;;;6.00;2.80;;;;;;;10.57;57.95;98523.31;7872806;36;20495;-70
2021/01/20 20:46:30;;;;;;;5.05;2.53;;;;;;;10.57;57.89;98520.66;7868521;36;20797;-71
2021/01/20 20:51:34;;;;;;;5.80;3.13;;;;;;;10.61;57.64;98507.84;7869198;36;20150;-71
2021/01/20 20:56:36;;;;;;;5.15;3.03;;;;;;;10.76;57.24;98510.88;7867909;36;20509;-70
2021/01/20 21:01:39;;;;;;;5.43;3.10;;;;;;;10.70;57.57;98496.28;7869260;36;20157;-71
2021/01/20 21:06:42;;;;;;;3.92;2.92;;;;;;;10.62;57.84;98494.34;7835248;36;20247;-71
2021/01/20 21:11:45;;;;;;;6.57;3.13;;;;;;;10.60;57.88;98493.66;7836084;36;22349;-70
2021/01/20 21:16:49;;;;;;;5.38;3.00;;;;;;;10.57;58.05;98487.78;7854087;36;21234;-70
2021/01/20 21:21:52;;;;;;;5.43;3.65;;;;;;;10.50;58.52;98495.53;7850560;36;20162;-71
2021/01/20 21:26:55;;;;;;;6.32;3.25;;;;;;;10.29;59.15;98479.75;7855076;36;21379;-71
2021/01/20 21:32:00;;;;;;;5.30;2.85;;;;;;;10.21;59.54;98471.63;7858176;36;21931;-71
2021/01/20 21:37:05;;;;;;;4.13;3.13;;;;;;;10.05;59.97;98463.38;7857789;36;20446;-71
2021/01/20 21:42:07;;;;;;;4.10;2.70;;;;;;;9.94;60.44;98457.25;7855030;36;20154;-70
2021/01/20 21:47:11;;;;;;;7.25;2.97;;;;;;;9.87;60.67;98440.13;7853457;36;20473;-70
2021/01/20 21:52:14;;;;;;;8.95;4.97;;;;;;;9.75;61.13;98438.63;7849412;36;20499;-70
2021/01/20 21:57:16;;;;;;;5.80;3.90;;;;;;;9.79;61.29;98432.03;7831403;36;20143;-70
2021/01/20 22:02:19;;;;;;;6.53;4.20;;;;;;;9.76;61.33;98432.31;7854585;36;20312;-70
2021/01/20 22:07:23;;;;;;;6.38;4.50;;;;;;;9.76;61.28;98438.50;7854757;36;20469;-69
2021/01/20 22:12:25;;;;;;;7.15;4.45;;;;;;;9.78;61.22;98436.50;7853380;36;20154;-69
2021/01/20 22:17:28;;;;;;;6.28;4.00;;;;;;;9.84;60.93;98434.25;7846667;36;20177;-69
2021/01/20 22:22:31;;;;;;;4.07;3.10;;;;;;;9.84;61.01;98427.09;7846260;36;20490;-69
2021/01/20 22:27:33;;;;;;;6.70;2.85;;;;;;;9.75;61.48;98415.47;7848917;36;21003;-69
2021/01/20 22:32:37;;;;;;;3.05;2.42;;;;;;;9.73;61.23;98406.78;7845486;36;20492;-70
2021/01/20 22:37:39;;;;;;;5.47;3.17;;;;;;;9.78;61.08;98399.19;7846562;36;20573;-70
2021/01/20 22:42:42;;;;;;;3.92;3.10;;;;;;;9.93;60.99;98393.38;7845924;36;20197;-70
2021/01/20 22:47:45;;;;;;;4.97;3.05;;;;;;;9.94;61.04;98366.56;7824647;36;21061;-70
2021/01/20 22:52:48;;;;;;;5.13;2.80;;;;;;;10.01;61.04;98350.81;7845330;36;20628;-71
2021/01/20 22:57:50;;;;;;;4.47;2.40;;;;;;;10.06;61.15;98335.16;7844765;36;20437;-70
2021/01/20 23:02:53;;;;;;;5.03;2.70;;;;;;;10.27;60.82;98328.75;7840751;36;20498;-70
2021/01/20 23:07:57;;;;;;;3.53;2.88;;;;;;;10.35;60.38;98319.03;7830243;36;20503;-71
2021/01/20 23:12:59;;;;;;;5.40;2.65;;;;;;;10.48;60.22;98312.47;7828554;36;20715;-71
2021/01/20 23:18:03;;;;;;;2.65;2.05;;;;;;;10.53;59.91;98305.69;7830922;36;21292;-70
2021/01/20 23:23:05;;;;;;;4.63;2.45;;;;;;;10.66;59.58;98300.78;7841298;36;20189;-72
2021/01/20 23:28:08;;;;;;;6.60;2.47;;;;;;;10.70;59.48;98290.66;7834505;36;20451;-71
2021/01/20 23:33:12;;;;;;;3.90;2.08;;;;;;;10.84;59.19;98292.75;7820602;36;21024;-71
2021/01/20 23:38:14;;;;;;;2.88;1.90;;;;;;;10.90;58.68;98286.78;7808276;36;20158;-70
2021/01/20 23:43:17;;;;;;;4.70;2.17;;;;;;;11.00;58.70;98277.84;7823753;36;21261;-71
2021/01/20 23:48:20;;;;;;;4.40;2.28;;;;;;;11.10;58.14;98254.50;7829299;36;20311;-70
2021/01/20 23:53:23;;;;;;;4.03;2.70;;;;;;;11.13;58.19;98243.50;7816075;36;20547;-70
2021/01/20 23:58:25;;;;;;;3.75;2.47;;;;;;;11.03;58.72;98240.97;7842258;36;20491;-71
